Time;durP1;ratioP1;P1;durP2;ratioP2;P2;SDS_P1;SDS_P2;PMS_P1;PMS_P2;Temp;Humidity;BMP_temperature;BMP_pressure;BME280_temperature;BME280_humidity;BME280_pressure;Samples;Min_cycle;Max_cycle;Signal;HPM_P1;HPM_P2
2024/01/01 00:01:48;;;;;;;34.03;22.50;;;;;;;16.50;46.97;92605.56;5030874;28;20087;-90
2024/01/01 00:04:14;;;;;;;34.40;21.95;;;;;;;16.56;47.31;92600.78;5016136;28;20103;-91
2024/01/01 00:06:39;;;;;;;31.80;20.23;;;;;;;16.53;47.11;92610.00;5008350;28;20501;-92
2024/01/01 00:09:04;;;;;;;31.15;21.60;;;;;;;16.51;47.34;92607.78;5034293;28;20053;-91
2024/01/01 00:11:30;;;;;;;32.40;19.25;;;;;;;16.54;47.43;92611.47;5032925;28;20032;-90
2024/01/01 00:13:55;;;;;;;32.08;21.48;;;;;;;16.56;47.02;92606.22;5032394;28;20033;-91
2024/01/01 00:16:21;;;;;;;35.53;22.25;;;;;;;16.48;47.25;92614.28;5048680;28;20047;-90
2024/01/01 00:18:47;;;;;;;30.85;20.73;;;;;;;16.52;47.28;92611.97;5023223;28;20041;-90
2024/01/01 00:21:13;;;;;;;31.83;22.05;;;;;;;16.58;47.48;92617.38;5021823;28;20522;-90
2024/01/01 00:23:38;;;;;;;33.42;23.23;;;;;;;16.53;47.27;92618.19;5005837;28;20037;-90
2024/01/01 00:26:05;;;;;;;29.10;20.67;;;;;;;16.55;47.34;92605.50;5028634;28;20076;-91
2024/01/01 00:28:30;;;;;;;32.13;19.73;;;;;;;16.53;47.08;92613.47;5006537;28;20057;-90
2024/01/01 00:30:56;;;;;;;33.30;22.52;;;;;;;16.55;47.36;92616.41;5008947;28;20052;-92
2024/01/01 00:33:21;;;;;;;31.65;20.80;;;;;;;16.55;47.36;92607.50;5008586;28;20376;-91
2024/01/01 00:35:48;;;;;;;36.60;22.45;;;;;;;16.55;47.40;92605.50;5018632;28;20439;-91
2024/01/01 00:38:13;;;;;;;30.35;19.40;;;;;;;16.56;47.05;92598.78;5027168;28;20602;-92
2024/01/01 00:40:39;;;;;;;33.00;21.70;;;;;;;16.53;47.47;92599.09;5010585;28;20049;-91
2024/01/01 00:43:04;;;;;;;37.58;24.30;;;;;;;16.52;47.61;92587.44;5018440;28;20533;-92
2024/01/01 00:45:29;;;;;;;30.98;21.10;;;;;;;16.52;47.21;92589.41;5026147;28;20531;-92
2024/01/01 00:47:55;;;;;;;37.22;23.27;;;;;;;16.56;47.34;92598.03;5021806;28;20057;-90
2024/01/01 00:50:20;;;;;;;33.65;22.50;;;;;;;16.58;47.48;92595.53;5017854;28;20057;-90
2024/01/01 00:52:46;;;;;;;29.35;19.45;;;;;;;16.56;46.93;92590.59;5027115;28;20447;-92
2024/01/01 00:55:11;;;;;;;34.42;21.80;;;;;;;16.55;46.94;92591.84;5022051;28;20041;-90
2024/01/01 00:57:38;;;;;;;36.60;23.23;;;;;;;16.57;47.03;92597.53;5008948;28;20141;-90
2024/01/01 01:00:04;;;;;;;34.35;21.98;;;;;;;16.57;46.79;92605.72;5005181;28;20140;-91
2024/01/01 01:02:30;;;;;;;37.85;24.58;;;;;;;16.60;46.98;92591.03;5017855;28;20067;-92
2024/01/01 01:04:56;;;;;;;32.78;21.77;;;;;;;16.57;47.26;92589.34;5016131;28;20038;-90
2024/01/01 01:07:21;;;;;;;38.47;23.67;;;;;;;16.56;47.46;92582.41;5033414;28;20471;-92
2024/01/01 01:09:47;;;;;;;30.52;19.02;;;;;;;16.54;47.27;92600.56;5000787;28;20041;-91
2024/01/01 01:12:12;;;;;;;36.05;24.08;;;;;;;16.54;47.69;92592.38;5008044;28;20084;-90
2024/01/01 01:14:38;;;;;;;34.63;22.25;;;;;;;16.54;47.13;92597.81;5016273;28;20037;-90
2024/01/01 01:17:03;;;;;;;33.72;22.95;;;;;;;16.59;47.27;92592.28;5025116;28;20041;-90
2024/01/01 01:19:30;;;;;;;31.88;19.90;;;;;;;16.56;47.26;92601.50;5015511;28;20118;-91
2024/01/01 01:21:55;;;;;;;35.58;22.90;;;;;;;16.59;47.37;92597.75;5031731;28;20115;-90
2024/01/01 01:24:20;;;;;;;28.42;19.52;;;;;;;16.53;46.71;92599.09;5017348;28;20037;-90
2024/01/01 01:26:46;;;;;;;36.42;23.25;;;;;;;16.50;47.17;92616.47;5014492;28;20033;-91
2024/01/01 01:29:11;;;;;;;35.45;22.38;;;;;;;16.54;47.29;92614.94;5026150;28;20045;-91
2024/01/01 01:31:37;;;;;;;31.17;19.77;;;;;;;16.50;46.99;92616.47;5022708;28;20045;-91
2024/01/01 01:34:02;;;;;;;33.72;20.90;;;;;;;16.55;46.75;92621.88;5026351;28;20419;-91
2024/01/01 01:36:28;;;;;;;34.25;22.90;;;;;;;16.57;47.33;92619.34;5020995;28;20041;-90
2024/01/01 01:38:53;;;;;;;31.55;21.02;;;;;;;16.54;47.00;92617.66;5032253;28;20048;-92
2024/01/01 01:41:20;;;;;;;34.47;22.25;;;;;;;16.55;47.28;92618.41;5028108;28;20534;-90
2024/01/01 01:43:45;;;;;;;34.22;22.88;;;;;;;16.55;47.26;92615.66;5002717;28;20131;-92
2024/01/01 01:46:12;;;;;;;33.70;22.50;;;;;;;16.57;46.86;92619.34;5010896;28;20278;-91
2024/01/01 01:48:38;;;;;;;33.03;20.92;;;;;;;16.61;47.29;92613.59;4995503;28;20048;-91
2024/01/01 01:51:04;;;;;;;30.95;22.55;;;;;;;16.63;46.92;92619.28;5015781;28;20049;-91
2024/01/01 01:53:29;;;;;;;30.83;20.48;;;;;;;16.55;47.60;92610.94;5003530;28;20037;-91
2024/01/01 01:55:57;;;;;;;32.70;21.73;;;;;;;16.60;47.17;92610.16;5035483;28;20048;-92
2024/01/01 01:58:22;;;;;;;32.65;21.08;;;;;;;16.63;47.13;92613.81;5018745;28;20054;-90
2024/01/01 02:00:48;;;;;;;29.38;19.52;;;;;;;16.58;47.37;92606.44;5018779;28;20549;-90
2024/01/01 02:03:14;;;;;;;34.58;22.83;;;;;;;16.55;47.09;92607.50;5012195;28;20057;-91
2024/01/01 02:05:40;;;;;;;34.40;23.92;;;;;;;16.56;47.02;92604.25;5007528;28;20052;-89
2024/01/01 02:08:06;;;;;;;35.88;23.13;;;;;;;16.52;47.20;92603.06;5006531;28;20041;-90
2024/01/01 02:10:31;;;;;;;35.88;22.98;;;;;;;16.52;47.30;92603.78;5015739;28;20075;-91
2024/01/01 02:12:57;;;;;;;35.75;22.80;;;;;;;16.56;47.41;92592.59;5015909;28;20036;-90
2024/01/01 02:15:22;;;;;;;32.55;21.92;;;;;;;16.56;47.44;92593.31;5021544;28;20053;-91
2024/01/01 02:17:48;;;;;;;31.50;21.13;;;;;;;16.56;47.18;92585.16;5036595;28;20042;-91
2024/01/01 02:20:14;;;;;;;32.22;22.40;;;;;;;16.55;47.00;92585.66;5025604;28;20068;-90
2024/01/01 02:22:39;;;;;;;34.08;22.05;;;;;;;16.54;47.07;92586.91;5012164;28;20794;-90
2024/01/01 02:25:05;;;;;;;31.52;22.15;;;;;;;16.56;46.94;92595.31;5019366;28;20045;-90
2024/01/01 02:27:31;;;;;;;33.53;23.00;;;;;;;16.57;47.22;92603.00;5020751;28;20045;-90
2024/01/01 02:29:57;;;;;;;30.98;21.05;;;;;;;16.50;46.96;92600.84;5008106;28;20041;-89
2024/01/01 02:32:22;;;;;;;29.38;19.63;;;;;;;16.55;46.49;92605.50;5027093;28;20045;-92
2024/01/01 02:34:49;;;;;;;30.48;20.45;;;;;;;16.51;47.64;92602.31;5010066;28;20432;-91
2024/01/01 02:37:14;;;;;;;36.08;22.02;;;;;;;16.59;47.06;92597.75;5013200;28;20049;-92
2024/01/01 02:39:40;;;;;;;28.00;19.40;;;;;;;16.57;46.91;92592.06;5036839;28;20135;-90
2024/01/01 02:42:05;;;;;;;37.08;24.27;;;;;;;16.57;47.35;92588.59;5043034;28;20241;-90
2024/01/01 02:44:30;;;;;;;31.45;20.80;;;;;;;16.56;46.97;92590.59;5016018;28;20033;-91
2024/01/01 02:46:56;;;;;;;28.73;19.52;;;;;;;16.53;47.24;92597.09;5045193;28;20049;-90
2024/01/01 02:49:22;;;;;;;35.20;22.23;;;;;;;16.57;47.29;92591.34;5025703;28;20040;-90
2024/01/01 02:51:48;;;;;;;35.88;22.05;;;;;;;16.56;46.86;92578.94;5035943;28;20037;-90
2024/01/01 02:54:13;;;;;;;38.72;24.02;;;;;;;16.56;47.40;92587.13;5012351;28;20136;-90
2024/01/01 02:56:39;;;;;;;26.45;18.95;;;;;;;16.53;46.70;92582.72;5029995;28;20483;-90
2024/01/01 02:59:04;;;;;;;30.40;21.27;;;;;;;16.55;47.63;92566.56;5048319;28;20041;-92
2024/01/01 03:01:29;;;;;;;34.35;22.45;;;;;;;16.60;47.30;92571.94;5030405;28;20048;-91
2024/01/01 03:03:55;;;;;;;36.88;23.83;;;;;;;16.59;46.92;92572.47;5045650;28;20041;-92
2024/01/01 03:06:20;;;;;;;34.95;22.95;;;;;;;16.53;47.29;92575.25;5003459;28;20308;-91
2024/01/01 03:08:46;;;;;;;30.50;21.00;;;;;;;16.58;47.24;92574.44;5028734;28;20045;-91
2024/01/01 03:11:11;;;;;;;31.35;21.67;;;;;;;16.63;47.15;92551.84;5005344;28;20061;-90
2024/01/01 03:13:37;;;;;;;31.17;21.85;;;;;;;16.60;47.08;92544.66;5047247;28;20044;-91
2024/01/01 03:16:03;;;;;;;30.48;20.45;;;;;;;16.58;47.12;92560.06;5000773;28;20053;-91
2024/01/01 03:18:28;;;;;;;26.27;18.65;;;;;;;16.59;47.03;92567.75;4995330;28;20128;-91
2024/01/01 03:20:55;;;;;;;33.00;21.65;;;;;;;16.59;46.87;92556.81;5012294;28;20416;-93
2024/01/01 03:23:20;;;;;;;34.08;22.77;;;;;;;16.54;47.57;92554.91;4995796;28;20033;-90
2024/01/01 03:25:46;;;;;;;33.33;23.77;;;;;;;16.60;47.25;92557.56;5009333;28;20041;-91
2024/01/01 03:28:11;;;;;;;33.85;22.63;;;;;;;16.60;46.83;92544.66;5012571;28;20075;-93
2024/01/01 03:30:37;;;;;;;31.15;22.13;;;;;;;16.60;47.24;92544.66;5027416;28;20052;-92
2024/01/01 03:33:02;;;;;;;35.80;22.52;;;;;;;16.63;47.49;92531.97;5045474;28;20045;-90
2024/01/01 03:35:31;;;;;;;32.63;23.15;;;;;;;16.63;47.20;92535.47;5010211;28;20044;-91
2024/01/01 03:37:59;;;;;;;31.48;22.58;;;;;;;16.59;47.43;92531.53;5022545;28;20030;-91
2024/01/01 03:40:25;;;;;;;32.50;22.35;;;;;;;16.53;47.14;92525.41;5023956;28;20076;-92
2024/01/01 03:42:50;;;;;;;34.78;23.73;;;;;;;16.59;47.29;92518.63;5013824;28;20415;-89
2024/01/01 03:45:16;;;;;;;32.55;21.98;;;;;;;16.56;47.01;92527.84;5017639;28;20044;-92
2024/01/01 03:47:42;;;;;;;30.50;21.10;;;;;;;16.55;46.45;92533.81;5040244;28;20084;-91
2024/01/01 03:50:10;;;;;;;34.30;22.65;;;;;;;16.60;47.00;92538.47;5034553;28;20049;-91
2024/01/01 03:52:35;;;;;;;34.47;23.67;;;;;;;16.59;47.11;92512.44;5033661;28;20201;-91
2024/01/01 03:55:03;;;;;;;34.22;22.00;;;;;;;16.53;47.44;92520.69;5047755;28;20151;-91
2024/01/01 03:57:31;;;;;;;31.30;20.10;;;;;;;16.51;47.76;92519.75;5013429;28;20045;-91
2024/01/01 03:59:56;;;;;;;30.92;19.88;;;;;;;16.53;47.00;92522.69;5022908;28;20203;-90
2024/01/01 04:02:22;;;;;;;33.22;23.20;;;;;;;16.54;46.93;92524.16;5009028;28;20111;-91
2024/01/01 04:04:49;;;;;;;31.42;21.08;;;;;;;16.52;46.75;92519.22;5018879;28;20047;-91
2024/01/01 04:07:16;;;;;;;33.92;21.42;;;;;;;16.49;47.10;92516.78;5012606;28;20072;-90
2024/01/01 04:09:41;;;;;;;33.03;21.77;;;;;;;16.56;46.62;92510.75;5009214;28;20053;-91
2024/01/01 04:12:07;;;;;;;27.35;19.83;;;;;;;16.53;47.03;92504.31;5009344;28;20099;-92
2024/01/01 04:14:32;;;;;;;26.13;19.73;;;;;;;16.48;46.52;92515.31;5029128;28;20047;-91
2024/01/01 04:16:58;;;;;;;33.90;23.25;;;;;;;16.54;47.40;92513.25;5009070;28;20044;-91
2024/01/01 04:19:24;;;;;;;36.40;24.23;;;;;;;16.56;47.38;92519.66;5012971;28;20056;-91
2024/01/01 04:21:50;;;;;;;28.88;18.88;;;;;;;16.46;46.71;92515.84;5013666;28;20523;-91
2024/01/01 04:24:15;;;;;;;34.47;21.27;;;;;;;16.54;47.20;92524.16;5013978;28;20037;-90
2024/01/01 04:26:40;;;;;;;38.22;24.15;;;;;;;16.48;47.36;92516.06;5008529;28;20033;-91
2024/01/01 04:29:06;;;;;;;31.10;21.42;;;;;;;16.46;46.90;92515.84;5030154;28;20037;-91
2024/01/01 04:31:31;;;;;;;32.45;22.35;;;;;;;16.54;47.40;92530.34;5011778;28;20086;-91
2024/01/01 04:33:57;;;;;;;31.15;22.85;;;;;;;16.53;47.50;92531.63;5033995;28;20044;-93
2024/01/01 04:36:22;;;;;;;31.20;21.92;;;;;;;16.55;47.43;92537.28;5010475;28;20396;-90
2024/01/01 04:38:48;;;;;;;34.95;21.10;;;;;;;16.57;46.84;92525.84;5007575;28;20064;-93
2024/01/01 04:41:14;;;;;;;33.95;24.02;;;;;;;16.58;47.24;92522.59;5004933;28;20425;-90
2024/01/01 04:43:40;;;;;;;40.15;24.92;;;;;;;16.56;47.56;92518.94;5005695;28;20048;-90
2024/01/01 04:46:06;;;;;;;35.67;23.80;;;;;;;16.53;47.62;92517.97;5014409;28;20040;-91
2024/01/01 04:48:32;;;;;;;31.65;21.10;;;;;;;16.52;47.63;92519.22;5009389;28;20045;-90
2024/01/01 04:50:58;;;;;;;33.85;21.75;;;;;;;16.54;47.71;92529.63;5021481;28;20127;-91
2024/01/01 04:53:26;;;;;;;33.42;22.13;;;;;;;16.52;47.42;92537.59;5008371;28;20037;-90
2024/01/01 04:55:51;;;;;;;31.80;21.20;;;;;;;16.50;47.29;92535.38;5018347;28;20060;-90
2024/01/01 04:58:17;;;;;;;38.50;24.15;;;;;;;16.51;47.35;92544.28;5026552;28;20484;-90
2024/01/01 05:00:42;;;;;;;35.17;22.85;;;;;;;16.46;46.85;92556.75;5008645;28;20415;-91
2024/01/01 05:03:08;;;;;;;35.10;23.25;;;;;;;16.54;47.40;92565.09;5025846;28;20389;-91
2024/01/01 05:05:33;;;;;;;32.10;22.23;;;;;;;16.60;47.70;92554.84;5019104;28;20037;-90
2024/01/01 05:07:59;;;;;;;28.92;20.50;;;;;;;16.51;46.99;92557.94;5025144;28;20049;-90
2024/01/01 05:10:24;;;;;;;33.35;21.98;;;;;;;16.52;46.90;92562.13;5017627;28;20029;-90
2024/01/01 05:12:50;;;;;;;32.28;22.40;;;;;;;16.54;47.41;92560.38;5025340;28;20037;-92
2024/01/01 05:15:15;;;;;;;30.92;21.98;;;;;;;16.48;47.32;92567.16;5014956;28;20129;-91
2024/01/01 05:17:41;;;;;;;39.33;26.45;;;;;;;16.57;47.32;92553.13;5025986;28;20411;-91
2024/01/01 05:20:07;;;;;;;33.47;22.45;;;;;;;16.55;47.26;92561.09;5025307;28;20049;-90
2024/01/01 05:22:32;;;;;;;29.67;19.90;;;;;;;16.49;47.00;92561.19;5032855;28;20174;-90
2024/01/01 05:24:58;;;;;;;34.03;21.05;;;;;;;16.52;47.39;92562.13;5016827;28;20506;-91
2024/01/01 05:27:23;;;;;;;29.23;19.77;;;;;;;16.51;46.97;92561.41;5028677;28;20420;-92
2024/01/01 05:29:49;;;;;;;28.55;19.40;;;;;;;16.50;47.13;92572.84;5007919;28;20041;-90
2024/01/01 05:32:14;;;;;;;32.05;21.77;;;;;;;16.54;47.12;92578.72;5033129;28;20072;-92
2024/01/01 05:34:41;;;;;;;28.88;20.30;;;;;;;16.61;47.55;92580.88;5011131;28;20452;-91
2024/01/01 05:37:06;;;;;;;29.00;21.05;;;;;;;16.58;47.17;92579.16;5026990;28;20041;-91
2024/01/01 05:39:32;;;;;;;31.83;20.75;;;;;;;16.57;47.39;92580.44;4993000;28;20049;-91
2024/01/01 05:41:57;;;;;;;31.50;21.02;;;;;;;16.55;46.60;92585.66;5004863;28;20044;-91
2024/01/01 05:44:22;;;;;;;32.08;21.33;;;;;;;16.50;46.71;92583.75;5026857;28;20052;-90
2024/01/01 05:46:49;;;;;;;29.10;20.98;;;;;;;16.49;46.56;92593.19;5011162;28;20052;-90
2024/01/01 05:49:15;;;;;;;32.42;21.33;;;;;;;16.56;47.17;92585.16;5028961;28;20052;-93
2024/01/01 05:51:40;;;;;;;33.17;22.27;;;;;;;16.57;47.08;92588.59;5005299;28;20037;-90
2024/01/01 05:54:06;;;;;;;31.23;21.15;;;;;;;16.54;47.34;92586.91;5011340;28;20559;-93
2024/01/01 05:56:31;;;;;;;34.65;21.98;;;;;;;16.51;47.24;92585.22;5010241;28;20488;-90
2024/01/01 05:58:57;;;;;;;30.63;20.73;;;;;;;16.52;46.83;92592.88;5036069;28;20032;-91
2024/01/01 06:01:22;;;;;;;27.98;19.50;;;;;;;16.57;46.81;92588.59;5029862;28;20387;-91
2024/01/01 06:03:48;;;;;;;30.33;20.67;;;;;;;16.57;46.83;92594.81;5012491;28;20033;-90
2024/01/01 06:06:13;;;;;;;29.10;20.25;;;;;;;16.57;46.84;92588.59;5025312;28;20435;-91
2024/01/01 06:08:39;;;;;;;30.65;19.63;;;;;;;16.54;46.48;92595.09;5031975;28;20045;-90
2024/01/01 06:11:06;;;;;;;28.77;19.58;;;;;;;16.53;46.86;92594.38;5024272;28;20471;-90
2024/01/01 06:13:32;;;;;;;28.83;18.90;;;;;;;16.54;46.72;92581.47;5005889;28;20064;-91
2024/01/01 06:15:58;;;;;;;26.48;19.73;;;;;;;16.52;47.02;92600.34;5032325;28;20068;-91
2024/01/01 06:18:25;;;;;;;27.40;20.23;;;;;;;16.56;46.77;92598.78;5028571;28;20147;-90
2024/01/01 06:20:50;;;;;;;28.98;19.10;;;;;;;16.50;46.45;92598.13;5012182;28;20036;-90
2024/01/01 06:23:16;;;;;;;27.27;19.10;;;;;;;16.50;46.48;92598.13;5045406;28;20510;-90
2024/01/01 06:25:42;;;;;;;30.40;19.63;;;;;;;16.55;46.32;92599.31;5025306;28;20049;-92
2024/01/01 06:28:07;;;;;;;30.08;20.25;;;;;;;16.52;46.51;92603.06;5021095;28;20452;-89
2024/01/01 06:30:34;;;;;;;28.40;18.38;;;;;;;16.59;46.40;92605.94;5012129;28;20071;-91
2024/01/01 06:33:01;;;;;;;26.70;19.27;;;;;;;16.57;46.42;92621.34;5021531;28;20049;-91
2024/01/01 06:35:30;;;;;;;25.25;18.70;;;;;;;16.62;46.45;92620.53;5014306;28;20047;-91
2024/01/01 06:37:58;;;;;;;26.25;18.85;;;;;;;16.61;46.23;92622.53;5029733;28;20468;-90
2024/01/01 06:40:24;;;;;;;29.05;19.27;;;;;;;16.54;46.75;92627.84;5025116;28;20045;-90
2024/01/01 06:42:49;;;;;;;23.67;17.55;;;;;;;16.52;46.23;92616.69;5017079;28;20435;-90
2024/01/01 06:45:14;;;;;;;27.30;19.60;;;;;;;16.51;46.42;92626.13;5011351;28;20629;-93
2024/01/01 06:47:40;;;;;;;27.80;19.40;;;;;;;16.52;46.93;92633.81;5042765;28;20056;-90
2024/01/01 06:50:06;;;;;;;27.48;18.45;;;;;;;16.51;46.51;92640.53;5046588;28;20033;-89
2024/01/01 06:52:31;;;;;;;24.83;17.88;;;;;;;16.48;46.43;92646.25;5031153;28;20052;-90
2024/01/01 06:54:57;;;;;;;28.95;18.98;;;;;;;16.54;46.50;92655.84;5029963;28;20047;-89
2024/01/01 06:57:22;;;;;;;26.98;19.67;;;;;;;16.56;47.02;92656.09;5026843;28;20049;-92
2024/01/01 06:59:47;;;;;;;26.33;19.25;;;;;;;16.57;46.57;92654.81;5018521;28;20757;-90
2024/01/01 07:02:13;;;;;;;27.02;18.63;;;;;;;16.46;46.61;92652.97;5026360;28;20037;-90
2024/01/01 07:04:38;;;;;;;28.17;18.77;;;;;;;16.55;46.73;92665.53;5024436;28;20041;-90
2024/01/01 07:07:04;;;;;;;25.75;17.73;;;;;;;16.53;46.66;92661.84;5043376;28;20045;-89
2024/01/01 07:09:29;;;;;;;28.95;18.65;;;;;;;16.54;46.16;92661.31;5021313;28;20036;-89
2024/01/01 07:11:57;;;;;;;25.73;18.38;;;;;;;16.53;46.42;92668.03;5027482;28;20033;-90
2024/01/01 07:14:22;;;;;;;28.65;18.92;;;;;;;16.59;46.63;92670.69;4994612;28;20481;-90
2024/01/01 07:16:48;;;;;;;28.83;19.45;;;;;;;16.58;46.49;92672.69;5010573;28;20045;-89
2024/01/01 07:19:14;;;;;;;24.13;17.45;;;;;;;16.52;46.58;92668.53;4994033;28;20447;-92
2024/01/01 07:21:40;;;;;;;27.80;18.58;;;;;;;16.51;46.47;92667.81;5022860;28;20045;-90
2024/01/01 07:24:05;;;;;;;26.42;18.70;;;;;;;16.53;46.87;92670.75;5007839;28;20049;-92
2024/01/01 07:26:31;;;;;;;26.00;17.40;;;;;;;16.54;46.38;92668.75;5037259;28;20045;-88
2024/01/01 07:28:57;;;;;;;26.10;18.35;;;;;;;16.52;46.55;92672.00;5030957;28;20048;-88
2024/01/01 07:31:22;;;;;;;26.02;18.75;;;;;;;16.53;46.34;92678.94;5045675;28;20048;-89
2024/01/01 07:33:49;;;;;;;27.00;18.00;;;;;;;16.56;46.39;92667.00;5014900;28;20428;-87
2024/01/01 07:36:15;;;;;;;24.08;17.92;;;;;;;16.54;46.33;92672.22;5020655;28;20048;-86
2024/01/01 07:38:40;;;;;;;24.88;18.25;;;;;;;16.50;46.52;92671.78;5034605;28;20052;-88
2024/01/01 07:41:05;;;;;;;24.85;17.15;;;;;;;16.52;46.57;92671.25;5029572;28;20052;-90
2024/01/01 07:43:32;;;;;;;22.38;16.33;;;;;;;16.55;46.52;92676.44;5015221;28;20041;-87
2024/01/01 07:45:57;;;;;;;28.02;18.80;;;;;;;16.60;46.43;92685.81;5030859;28;20098;-88
2024/01/01 07:48:23;;;;;;;25.27;17.67;;;;;;;16.57;46.27;92671.19;5029013;28;20235;-89
2024/01/01 07:50:48;;;;;;;25.80;18.13;;;;;;;16.60;46.57;92680.34;5014822;28;20071;-88
2024/01/01 07:53:14;;;;;;;27.73;18.25;;;;;;;16.53;46.37;92680.94;5011280;28;20049;-88
2024/01/01 07:55:39;;;;;;;25.75;17.52;;;;;;;16.52;46.54;92682.19;5003706;28;20086;-88
2024/01/01 07:58:05;;;;;;;24.10;17.45;;;;;;;16.54;46.15;92685.13;5006280;28;20060;-87
2024/01/01 08:00:30;;;;;;;23.52;17.20;;;;;;;16.55;46.14;92681.88;5028967;28;20114;-87
2024/01/01 08:02:56;;;;;;;25.23;17.38;;;;;;;16.54;46.65;92683.16;5015326;28;20110;-89
2024/01/01 08:05:21;;;;;;;24.48;16.85;;;;;;;16.51;46.71;92686.16;5024411;28;20071;-88
2024/01/01 08:07:47;;;;;;;26.92;18.08;;;;;;;16.51;46.28;92692.34;5027506;28;20045;-87
2024/01/01 08:10:15;;;;;;;23.65;16.83;;;;;;;16.49;46.41;92696.84;5006150;28;20037;-88
2024/01/01 08:12:40;;;;;;;27.25;17.60;;;;;;;16.52;46.53;92701.28;5025483;28;20037;-87
2024/01/01 08:15:06;;;;;;;26.60;17.25;;;;;;;16.57;46.33;92706.66;4994190;28;20041;-88
2024/01/01 08:17:31;;;;;;;27.10;18.08;;;;;;;16.56;46.80;92710.66;5020713;28;20045;-87
2024/01/01 08:19:57;;;;;;;25.38;17.83;;;;;;;16.55;46.36;92711.16;5030466;28;20037;-88
2024/01/01 08:22:22;;;;;;;23.27;17.75;;;;;;;16.51;46.24;92722.38;5029235;28;20453;-87
2024/01/01 08:24:48;;;;;;;23.45;16.65;;;;;;;16.55;46.55;92720.09;5013143;28;20037;-86
2024/01/01 08:27:13;;;;;;;24.67;18.00;;;;;;;16.53;46.35;92721.84;5041088;28;20041;-87
2024/01/01 08:29:39;;;;;;;23.52;17.20;;;;;;;16.56;46.26;92723.56;5012466;28;20037;-88
2024/01/01 08:32:04;;;;;;;23.58;17.00;;;;;;;16.49;46.08;92727.59;5021379;28;20048;-88
2024/01/01 08:34:31;;;;;;;26.20;18.05;;;;;;;16.52;46.36;92725.84;5007362;28;20037;-88
2024/01/01 08:36:59;;;;;;;23.35;16.75;;;;;;;16.53;46.01;92724.59;5014716;28;20120;-88
2024/01/01 08:39:24;;;;;;;24.30;16.65;;;;;;;16.55;46.01;92727.53;5008429;28;20037;-88
2024/01/01 08:41:50;;;;;;;21.58;15.77;;;;;;;16.55;46.28;92724.81;4992976;28;20034;-86
2024/01/01 08:44:15;;;;;;;23.88;17.08;;;;;;;16.49;46.13;92726.84;5030108;28;20483;-88
2024/01/01 08:46:41;;;;;;;22.83;16.77;;;;;;;16.55;46.31;92733.00;5010553;28;20045;-88
2024/01/01 08:49:06;;;;;;;23.63;17.00;;;;;;;16.48;46.40;92725.38;5012580;28;20261;-87
2024/01/01 08:51:33;;;;;;;24.15;16.90;;;;;;;16.52;46.07;92728.56;5035433;28;20045;-88
2024/01/01 08:53:58;;;;;;;21.85;16.30;;;;;;;16.46;46.16;92739.53;5007315;28;20073;-88
2024/01/01 08:56:23;;;;;;;22.00;16.65;;;;;;;16.45;46.52;92738.78;5000242;28;20491;-89
2024/01/01 08:58:49;;;;;;;21.85;15.38;;;;;;;16.53;46.19;92749.88;5030519;28;20037;-86
2024/01/01 09:01:14;;;;;;;23.00;16.33;;;;;;;16.43;46.04;92751.50;5026490;28;20044;-87
2024/01/01 09:03:40;;;;;;;21.40;16.35;;;;;;;16.50;45.92;92755.63;5008783;28;20042;-87
2024/01/01 09:06:05;;;;;;;25.15;16.30;;;;;;;16.56;46.10;92757.03;4991664;28;20041;-89
2024/01/01 09:08:31;;;;;;;23.20;16.20;;;;;;;16.49;46.44;92763.06;5003704;28;20155;-87
2024/01/01 09:10:56;;;;;;;22.33;15.30;;;;;;;16.55;46.15;92760.28;5022084;28;20113;-88
2024/01/01 09:13:22;;;;;;;22.77;15.90;;;;;;;16.47;46.04;92762.84;5027455;28;20048;-89
2024/01/01 09:15:48;;;;;;;20.88;16.33;;;;;;;16.49;46.10;92765.06;5012242;28;20064;-88
2024/01/01 09:18:13;;;;;;;20.33;15.30;;;;;;;16.52;45.88;92766.75;5015485;28;20052;-87
2024/01/01 09:20:41;;;;;;;22.38;15.77;;;;;;;16.59;46.15;92771.66;5028237;28;20037;-88
2024/01/01 09:23:06;;;;;;;22.35;15.88;;;;;;;16.45;46.35;92776.28;5045733;28;20036;-87
2024/01/01 09:25:33;;;;;;;22.38;16.02;;;;;;;16.54;46.18;92775.91;5047991;28;20048;-87
2024/01/01 09:27:58;;;;;;;19.75;15.27;;;;;;;16.42;46.02;92772.59;5048456;28;20040;-87
2024/01/01 09:30:24;;;;;;;21.40;14.55;;;;;;;16.52;46.09;92777.66;5031043;28;20391;-89
2024/01/01 09:32:49;;;;;;;19.85;14.32;;;;;;;16.57;46.24;92774.88;5042945;28;20422;-87
2024/01/01 09:35:15;;;;;;;23.30;15.75;;;;;;;16.54;46.28;92780.63;5009458;28;20068;-89
2024/01/01 09:37:40;;;;;;;22.67;16.35;;;;;;;16.53;46.13;92779.88;5001818;28;20046;-88
2024/01/01 09:40:06;;;;;;;22.25;15.05;;;;;;;16.57;46.37;92783.06;5027810;28;20078;-88
2024/01/01 09:42:33;;;;;;;20.33;15.35;;;;;;;16.56;46.41;92783.59;5007609;28;20049;-87
2024/01/01 09:44:58;;;;;;;20.52;15.38;;;;;;;16.46;46.23;92775.75;5002177;28;20499;-89
2024/01/01 09:47:23;;;;;;;22.83;15.65;;;;;;;16.52;45.95;92783.88;5028856;28;20094;-89
2024/01/01 09:49:49;;;;;;;21.45;15.70;;;;;;;16.51;46.38;92784.38;5032365;28;20146;-87
2024/01/01 09:52:14;;;;;;;23.17;14.93;;;;;;;16.48;45.93;92780.69;5026667;28;20037;-87
2024/01/01 09:54:41;;;;;;;22.58;16.08;;;;;;;16.56;46.28;92775.41;5034734;28;20042;-88
2024/01/01 09:57:06;;;;;;;20.52;15.25;;;;;;;16.45;46.51;92771.53;4991018;28;20345;-87
2024/01/01 09:59:36;;;;;;;21.65;15.27;;;;;;;16.50;46.21;92771.97;5006911;28;20512;-88
2024/01/01 10:02:05;;;;;;;23.40;15.63;;;;;;;16.48;46.11;92777.94;5012565;28;20042;-88
2024/01/01 10:04:31;;;;;;;22.00;16.17;;;;;;;16.57;46.55;92783.06;5027159;28;20136;-89
2024/01/01 10:06:58;;;;;;;21.88;16.02;;;;;;;16.50;46.10;92778.19;5013387;28;20036;-86
2024/01/01 10:09:24;;;;;;;20.23;14.43;;;;;;;16.53;46.34;92785.34;5012338;28;20046;-88
2024/01/01 10:11:49;;;;;;;22.02;14.95;;;;;;;16.52;46.81;92781.13;5013176;28;20033;-88
2024/01/01 10:14:15;;;;;;;22.02;15.18;;;;;;;16.55;46.25;92787.56;5009848;28;20049;-89
2024/01/01 10:16:41;;;;;;;19.65;13.90;;;;;;;16.56;46.15;92775.41;5047054;28;20534;-87
2024/01/01 10:19:07;;;;;;;23.98;16.10;;;;;;;16.50;46.59;92786.38;5025676;28;20051;-88
2024/01/01 10:21:38;;;;;;;20.40;15.05;;;;;;;16.50;46.03;92778.19;5026779;28;20033;-87
2024/01/01 10:24:16;;;;;;;;;;;;;;;16.49;46.48;92778.69;5004132;28;20037;-88
2024/01/01 10:26:48;;;;;;;23.08;15.63;;;;;;;16.54;46.32;92784.09;5040008;28;19921;-87
2024/01/01 10:29:15;;;;;;;23.23;15.45;;;;;;;16.54;46.31;92775.91;5000511;28;20099;-90
2024/01/01 10:31:47;;;;;;;22.42;14.95;;;;;;;16.45;46.11;92782.44;5021452;28;20044;-89
2024/01/01 10:34:12;;;;;;;21.77;15.02;;;;;;;16.51;46.13;92789.84;5010912;28;20036;-89
2024/01/01 10:36:40;;;;;;;22.00;15.77;;;;;;;16.55;46.43;92790.28;5017100;28;20040;-88
2024/01/01 10:39:05;;;;;;;20.92;14.90;;;;;;;16.49;46.22;92787.63;4995547;28;20045;-89
2024/01/01 10:41:32;;;;;;;20.13;14.02;;;;;;;16.47;46.07;92792.84;5018673;28;20444;-89
2024/01/01 10:44:00;;;;;;;21.65;15.10;;;;;;;16.50;46.10;92783.63;5023808;28;20037;-88
2024/01/01 10:46:25;;;;;;;22.75;15.02;;;;;;;16.52;46.10;92786.59;5005048;28;20082;-89
2024/01/01 10:48:51;;;;;;;21.10;14.55;;;;;;;16.55;45.76;92790.28;5024196;28;20044;-90
2024/01/01 10:51:34;;;;;;;24.08;15.18;;;;;;;16.54;45.95;92786.81;5005186;28;20523;-88
2024/01/01 10:54:24;;;;;;;17.42;13.13;;;;;;;16.55;45.91;92785.56;5027901;28;20041;-88
2024/01/01 10:57:17;;;;;;;21.07;15.07;;;;;;;16.50;46.39;92793.81;5044461;28;20680;-88
2024/01/01 11:00:15;;;;;;;19.65;14.50;;;;;;;16.55;46.07;92798.47;5063529;28;20566;-90
2024/01/01 11:02:41;;;;;;;21.27;13.90;;;;;;;16.56;46.25;92794.50;5035452;28;20049;-90
2024/01/01 11:05:10;;;;;;;21.63;14.80;;;;;;;16.55;46.13;92788.31;5025196;28;20048;-89
2024/01/01 11:07:54;;;;;;;21.33;14.52;;;;;;;16.49;46.24;92787.63;5010496;28;20052;-88
2024/01/01 11:10:36;;;;;;;21.95;15.55;;;;;;;16.48;46.03;92783.41;5032158;28;20045;-89
2024/01/01 11:13:03;;;;;;;19.48;13.85;;;;;;;16.55;46.16;92791.03;5030410;28;20045;-90